Time;durP1;ratioP1;P1;durP2;ratioP2;P2;SDS_P1;SDS_P2;PMS_P1;PMS_P2;Temp;Humidity;BMP_temperature;BMP_pressure;BME280_temperature;BME280_humidity;BME280_pressure;Samples;Min_cycle;Max_cycle;Signal;HPM_P1;HPM_P2
2023/01/19 00:00:07;;;;;;;41.08;22.48;;;;;;;7.02;100.00;100033.68;1855484;77;21640;-84
2023/01/19 00:03:18;;;;;;;44.23;23.10;;;;;;;7.18;99.69;100047.36;1822175;78;21223;-81
2023/01/19 00:06:24;;;;;;;43.38;24.43;;;;;;;7.15;99.35;100049.03;1857215;77;21153;-82
2023/01/19 00:09:24;;;;;;;44.38;22.82;;;;;;;7.12;99.00;100062.98;1821801;78;21168;-79
2023/01/19 00:12:31;;;;;;;44.42;22.32;;;;;;;7.09;98.82;100075.52;1819054;79;21160;-83
2023/01/19 00:15:37;;;;;;;46.75;24.23;;;;;;;7.00;100.00;100066.45;1818917;79;21184;-83
2023/01/19 00:18:42;;;;;;;44.88;23.90;;;;;;;6.91;100.00;100069.61;1820851;79;21160;-81
2023/01/19 00:21:49;;;;;;;38.20;21.73;;;;;;;7.09;100.00;100070.08;1791628;80;21733;-85
2023/01/19 00:24:55;;;;;;;47.35;22.25;;;;;;;7.00;100.00;100065.60;1820905;79;21223;-80
2023/01/19 00:27:55;;;;;;;45.90;24.63;;;;;;;7.02;100.00;100059.00;1819834;79;21192;-80
2023/01/19 00:31:01;;;;;;;50.73;23.85;;;;;;;7.11;100.00;100050.40;1819712;79;21232;-80
2023/01/19 00:34:08;;;;;;;43.98;23.22;;;;;;;7.18;100.00;100056.88;1790579;80;21149;-84
2023/01/19 00:37:15;;;;;;;45.73;22.48;;;;;;;7.10;100.00;100055.47;1820675;79;21188;-83
2023/01/19 00:40:21;;;;;;;45.65;23.38;;;;;;;7.16;100.00;100052.97;1819451;79;21164;-79
2023/01/19 00:43:27;;;;;;;39.90;22.52;;;;;;;7.06;100.00;100041.87;1819696;79;21230;-83
2023/01/19 00:46:34;;;;;;;44.33;22.07;;;;;;;7.01;99.93;100044.19;1790564;80;21685;-79
2023/01/19 00:49:39;;;;;;;40.92;21.25;;;;;;;7.02;100.00;100034.53;1820612;79;21733;-83
2023/01/19 00:52:46;;;;;;;47.43;22.17;;;;;;;6.86;100.00;100048.00;1820327;79;21228;-83
2023/01/19 00:55:53;;;;;;;44.30;21.50;;;;;;;6.91;100.00;100038.85;1820063;79;21160;-82
2023/01/19 00:59:00;;;;;;;41.28;22.60;;;;;;;6.97;100.00;100050.47;1821226;79;21156;-84
2023/01/19 01:02:05;;;;;;;43.68;23.85;;;;;;;6.88;100.00;100037.33;1790489;80;21231;-84
2023/01/19 01:05:13;;;;;;;49.05;23.62;;;;;;;6.87;100.00;100032.91;1819700;79;21200;-81
2023/01/19 01:08:18;;;;;;;46.95;22.32;;;;;;;6.88;100.00;100037.33;1819886;79;21195;-83
2023/01/19 01:11:24;;;;;;;48.00;23.27;;;;;;;6.97;100.00;100036.87;1823912;77;21236;-81
2023/01/19 01:14:31;;;;;;;38.95;22.60;;;;;;;6.79;100.00;100033.34;1843610;78;21141;-80
2023/01/19 01:17:31;;;;;;;45.80;23.45;;;;;;;6.87;100.00;100034.77;1843087;78;21181;-84
2023/01/19 01:20:36;;;;;;;44.08;22.70;;;;;;;6.37;100.00;100034.87;1765933;81;21716;-84
2023/01/19 01:23:42;;;;;;;41.83;22.70;;;;;;;6.31;100.00;100032.78;1788901;80;21168;-80
2023/01/19 01:26:48;;;;;;;42.75;23.60;;;;;;;6.20;100.00;100033.00;1795607;80;21692;-84
2023/01/19 01:29:53;;;;;;;44.55;24.10;;;;;;;6.09;100.00;100039.52;1765236;81;21204;-79
2023/01/19 01:32:59;;;;;;;43.40;24.65;;;;;;;6.18;100.00;100041.82;1795728;80;21199;-83
2023/01/19 01:36:05;;;;;;;43.78;23.32;;;;;;;6.19;100.00;100027.22;1796677;80;21168;-83
2023/01/19 01:39:11;;;;;;;46.40;25.20;;;;;;;6.28;100.00;100031.73;1796490;80;21168;-79
2023/01/19 01:42:24;;;;;;;51.77;25.45;;;;;;;6.23;100.00;100035.42;1795544;80;21183;-79
2023/01/19 01:45:41;;;;;;;45.65;24.25;;;;;;;6.31;100.00;100032.78;1796721;80;21160;-79
2023/01/19 01:48:51;;;;;;;41.83;24.40;;;;;;;6.29;100.00;100015.77;1796804;80;21149;-79
2023/01/19 01:51:59;;;;;;;47.05;23.75;;;;;;;6.23;100.00;100023.19;1795306;80;21180;-79
2023/01/19 01:55:08;;;;;;;44.58;23.67;;;;;;;6.21;100.00;100022.98;1796770;80;21140;-79
2023/01/19 01:58:14;;;;;;;42.80;23.90;;;;;;;6.20;100.00;100026.20;1796807;79;21271;-83
2023/01/19 02:04:42;;;;;;;38.83;22.27;;;;;;;6.27;100.00;100037.33;1796640;80;21698;-83
2023/01/19 02:14:48;;;;;;;37.78;21.60;;;;;;;6.37;100.00;100038.95;1811508;79;21145;-80
2023/01/19 02:17:57;;;;;;;37.17;22.05;;;;;;;6.51;100.00;100038.90;1813216;79;21749;-83
2023/01/19 02:21:07;;;;;;;34.35;20.50;;;;;;;6.46;100.00;100045.81;1811639;79;21180;-82
2023/01/19 02:24:13;;;;;;;37.48;21.10;;;;;;;6.45;100.00;100051.77;1813334;79;21149;-83
2023/01/19 02:27:19;;;;;;;46.92;23.45;;;;;;;6.48;100.00;100044.63;1791194;79;21702;-83
2023/01/19 02:30:26;;;;;;;44.42;22.58;;;;;;;6.44;100.00;100048.67;1811927;79;21765;-83
2023/01/19 02:33:32;;;;;;;41.45;21.93;;;;;;;6.27;100.00;100053.11;1811721;79;21192;-79
2023/01/19 02:36:45;;;;;;;44.55;22.37;;;;;;;6.23;100.00;100044.92;1813344;79;21749;-80
2023/01/19 02:40:01;;;;;;;43.65;21.87;;;;;;;6.27;100.00;100055.83;1811614;79;21161;-83
2023/01/19 02:43:07;;;;;;;39.63;20.50;;;;;;;6.31;100.00;100062.66;1812976;79;21693;-83
2023/01/19 02:46:14;;;;;;;36.05;19.82;;;;;;;6.22;100.00;100050.02;1811572;79;21701;-80
2023/01/19 02:49:20;;;;;;;35.08;19.85;;;;;;;6.15;100.00;100067.91;1813344;79;21195;-83
2023/01/19 02:52:26;;;;;;;35.25;18.50;;;;;;;6.24;100.00;100065.64;1810329;79;21808;-83
2023/01/19 02:55:32;;;;;;;38.65;21.30;;;;;;;6.24;100.00;100067.00;1813238;79;21165;-80
2023/01/19 02:58:45;;;;;;;37.20;20.02;;;;;;;6.24;100.00;100060.20;1811349;79;21173;-83
2023/01/19 03:02:09;;;;;;;36.05;18.20;;;;;;;6.20;100.00;100060.16;1795826;79;21196;-80
2023/01/19 03:05:26;;;;;;;39.40;20.40;;;;;;;6.25;100.00;100067.34;1811669;79;21145;-80
2023/01/19 03:09:03;;;;;;;41.40;20.32;;;;;;;6.29;100.00;100061.95;1813303;79;21185;-80
2023/01/19 03:12:29;;;;;;;39.90;19.20;;;;;;;6.28;100.00;100063.47;1759097;81;21215;-80
2023/01/19 03:15:45;;;;;;;34.38;18.10;;;;;;;6.38;100.00;100071.89;1816635;78;21252;-79
2023/01/19 03:18:52;;;;;;;42.58;21.23;;;;;;;6.37;100.00;100064.75;1851462;77;21187;-82
2023/01/19 03:22:05;;;;;;;35.25;19.20;;;;;;;6.39;100.00;100074.09;1817860;78;21152;-79
2023/01/19 03:25:14;;;;;;;38.50;19.60;;;;;;;6.39;100.00;100079.02;1851850;77;21129;-79
2023/01/19 03:28:20;;;;;;;39.48;18.25;;;;;;;6.32;100.00;100069.80;1817357;78;21725;-80
2023/01/19 03:31:30;;;;;;;38.45;18.62;;;;;;;6.37;100.00;100087.00;1850256;77;21199;-80
2023/01/19 03:34:35;;;;;;;38.00;18.67;;;;;;;6.39;100.00;100087.17;1817925;79;21144;-80
2023/01/19 03:37:43;;;;;;;34.80;17.27;;;;;;;6.37;100.00;100072.05;1850786;77;21187;-84
2023/01/19 03:40:48;;;;;;;35.33;18.77;;;;;;;6.44;100.00;100088.06;1817546;79;21145;-82
2023/01/19 03:43:54;;;;;;;33.95;18.55;;;;;;;6.47;100.00;100079.61;1850819;77;21204;-83
2023/01/19 03:46:59;;;;;;;37.90;18.95;;;;;;;6.45;100.00;100083.00;1793819;79;21192;-80
2023/01/19 03:50:04;;;;;;;33.65;18.17;;;;;;;6.42;100.00;100081.95;1850701;77;21666;-80
2023/01/19 03:53:14;;;;;;;29.98;18.37;;;;;;;6.40;100.00;100088.05;1816378;79;21152;-80
2023/01/19 03:56:26;;;;;;;;;;;;;;;6.42;100.00;100099.61;1829669;77;21129;-80
2023/01/19 03:59:33;;;;;;;35.28;18.45;;;;;;;6.43;100.00;100089.59;1850651;77;20182;-83
2023/01/19 04:02:39;;;;;;;38.60;19.67;;;;;;;6.49;100.00;100086.24;1816416;79;21780;-80
2023/01/19 04:05:45;;;;;;;41.92;19.67;;;;;;;6.49;100.00;100089.81;1850547;77;21710;-84
2023/01/19 04:08:50;;;;;;;31.90;17.12;;;;;;;6.49;100.00;100094.39;1817311;79;21149;-80
2023/01/19 04:11:56;;;;;;;31.25;17.95;;;;;;;6.45;100.00;100107.46;1850267;77;21275;-80
2023/01/19 04:15:02;;;;;;;32.73;18.27;;;;;;;6.39;100.00;100104.83;1816483;78;21827;-83
2023/01/19 04:18:07;;;;;;;31.80;16.97;;;;;;;6.40;100.00;100105.20;1855663;77;21191;-80
2023/01/19 04:21:15;;;;;;;36.10;18.17;;;;;;;6.29;100.00;100105.41;1823295;78;21149;-83
2023/01/19 04:24:19;;;;;;;29.05;17.07;;;;;;;6.23;100.00;100106.03;1856849;77;21140;-83
2023/01/19 04:27:27;;;;;;;34.78;17.42;;;;;;;6.25;100.00;100105.88;1822921;78;21192;-80
2023/01/19 04:30:33;;;;;;;33.23;17.82;;;;;;;6.21;100.00;100107.18;1856719;77;21717;-80
2023/01/19 04:33:38;;;;;;;37.50;18.77;;;;;;;6.21;100.00;100109.42;1821764;78;21184;-84
2023/01/19 04:36:45;;;;;;;34.05;17.35;;;;;;;6.15;100.00;100108.66;1856724;77;21643;-79
2023/01/19 04:39:51;;;;;;;38.30;19.02;;;;;;;6.19;100.00;100114.13;1823330;78;21196;-79
2023/01/19 04:42:49;;;;;;;35.08;18.77;;;;;;;6.12;100.00;100114.41;1855762;77;21219;-79
2023/01/19 04:45:43;;;;;;;41.88;19.73;;;;;;;6.01;100.00;100118.17;1821780;78;21207;-82
2023/01/19 04:48:49;;;;;;;35.38;18.35;;;;;;;5.97;100.00;100115.91;1856837;77;21144;-80
2023/01/19 04:51:54;;;;;;;30.25;18.07;;;;;;;5.93;100.00;100123.52;1822975;78;21187;-83
2023/01/19 04:54:59;;;;;;;38.85;17.40;;;;;;;5.97;100.00;100134.41;1833233;77;21144;-79
2023/01/19 04:58:04;;;;;;;34.90;18.07;;;;;;;5.98;100.00;100135.28;1822216;78;21764;-79
2023/01/19 05:01:14;;;;;;;32.60;16.90;;;;;;;6.01;100.00;100146.67;1855200;77;21149;-83
2023/01/19 05:04:24;;;;;;;39.53;19.27;;;;;;;6.03;100.00;100139.76;1823553;78;21196;-79
2023/01/19 05:07:30;;;;;;;36.90;17.10;;;;;;;5.98;100.00;100145.64;1856929;77;21753;-83
2023/01/19 05:10:36;;;;;;;32.63;16.37;;;;;;;5.95;100.00;100145.08;1823627;78;21149;-79
2023/01/19 05:13:43;;;;;;;33.53;16.87;;;;;;;5.94;100.00;100145.59;1857069;77;21712;-83
2023/01/19 05:16:49;;;;;;;35.30;16.70;;;;;;;6.03;100.00;100150.62;1801835;78;21156;-79
2023/01/19 05:19:54;;;;;;;31.33;17.65;;;;;;;6.06;100.00;100153.02;1820714;79;21157;-79
2023/01/19 05:22:59;;;;;;;29.50;16.32;;;;;;;6.09;100.00;100159.00;1820603;79;21729;-83
2023/01/19 05:26:07;;;;;;;39.13;17.05;;;;;;;6.08;100.00;100158.66;1820512;79;21598;-79
2023/01/19 05:29:13;;;;;;;31.02;16.20;;;;;;;6.08;100.00;100151.02;1820721;79;21183;-83
2023/01/19 05:32:19;;;;;;;33.38;18.02;;;;;;;6.08;100.00;100154.59;1820485;79;21168;-84
2023/01/19 05:35:24;;;;;;;29.60;16.15;;;;;;;6.11;100.00;100166.98;1820101;79;21199;-79
2023/01/19 05:38:30;;;;;;;33.30;15.72;;;;;;;6.19;100.00;100167.09;1820127;79;21191;-83
2023/01/19 05:41:35;;;;;;;36.13;18.95;;;;;;;6.25;100.00;100175.13;1786610;79;21137;-80
2023/01/19 05:44:40;;;;;;;31.70;17.07;;;;;;;6.33;100.00;100176.09;1780762;80;21180;-79
2023/01/19 05:47:47;;;;;;;38.23;18.35;;;;;;;6.32;100.00;100174.38;1787048;80;21839;-80
2023/01/19 05:50:52;;;;;;;39.33;17.82;;;;;;;6.27;100.00;100183.50;1788298;79;21147;-82
2023/01/19 05:53:56;;;;;;;36.40;17.37;;;;;;;6.23;100.00;100180.73;1787112;80;22021;-79
2023/01/19 05:57:03;;;;;;;39.75;18.60;;;;;;;6.18;100.00;100191.19;1727383;83;21216;-81
2023/01/19 06:00:08;;;;;;;32.03;17.27;;;;;;;6.21;100.00;100184.11;1727214;83;21188;-83
2023/01/19 06:03:13;;;;;;;29.95;16.95;;;;;;;6.17;100.00;100201.71;1727442;83;21232;-82
2023/01/19 06:06:19;;;;;;;33.00;16.75;;;;;;;6.20;100.00;100195.11;1727765;81;21142;-83
2023/01/19 06:09:24;;;;;;;41.48;17.17;;;;;;;6.21;100.00;100211.27;1728902;81;21740;-79
2023/01/19 06:12:31;;;;;;;34.80;16.42;;;;;;;6.21;100.00;100216.70;1745351;80;21168;-83
2023/01/19 06:15:37;;;;;;;28.10;15.53;;;;;;;6.27;100.00;100224.75;1759129;81;21204;-79
2023/01/19 06:18:45;;;;;;;28.30;14.80;;;;;;;6.32;100.00;100231.44;1783945;79;21168;-83
2023/01/19 06:21:51;;;;;;;30.17;16.15;;;;;;;6.35;100.00;100235.22;1786763;79;21196;-79
2023/01/19 06:24:56;;;;;;;27.73;15.40;;;;;;;6.42;100.00;100240.89;1780622;79;21132;-79
2023/01/19 06:28:01;;;;;;;29.20;16.10;;;;;;;6.50;100.00;100239.64;1761339;80;85587;-79
2023/01/19 06:31:07;;;;;;;29.45;15.80;;;;;;;6.51;100.00;100245.92;1722605;82;21757;-79
2023/01/19 06:34:12;;;;;;;32.55;16.32;;;;;;;6.57;100.00;100244.80;1732422;81;21144;-78
2023/01/19 06:37:18;;;;;;;27.82;14.10;;;;;;;6.59;100.00;100244.16;1745049;81;21184;-79
2023/01/19 06:40:24;;;;;;;29.25;14.68;;;;;;;6.63;100.00;100245.57;1720068;82;22030;-79
2023/01/19 06:43:30;;;;;;;29.50;15.20;;;;;;;6.72;99.50;100268.23;1721841;82;21196;-79
2023/01/19 06:46:36;;;;;;;27.30;14.53;;;;;;;6.77;99.31;100262.34;1717519;82;21728;-79
2023/01/19 06:49:42;;;;;;;32.23;15.53;;;;;;;6.85;98.67;100259.21;1730152;82;21176;-79
2023/01/19 06:52:48;;;;;;;28.32;16.37;;;;;;;6.87;98.42;100264.02;1726060;82;21159;-79
2023/01/19 06:55:54;;;;;;;30.77;15.65;;;;;;;6.94;98.22;100252.52;1731726;81;21163;-79
2023/01/19 06:59:00;;;;;;;25.52;14.78;;;;;;;7.01;97.89;100255.83;1736255;81;21188;-84
2023/01/19 07:02:06;;;;;;;30.68;14.95;;;;;;;7.05;97.89;100261.28;1726224;81;21255;-84
2023/01/19 07:05:15;;;;;;;27.22;14.10;;;;;;;7.00;98.32;100254.09;1732727;81;21192;-83
2023/01/19 07:08:22;;;;;;;31.62;14.40;;;;;;;7.19;98.03;100253.08;1724612;81;21175;-84
2023/01/19 07:11:28;;;;;;;30.85;15.18;;;;;;;7.16;97.68;100254.78;1730506;81;21210;-83
2023/01/19 07:14:34;;;;;;;31.12;15.45;;;;;;;7.15;97.01;100255.28;1726569;81;21176;-83
2023/01/19 07:17:40;;;;;;;30.45;15.08;;;;;;;7.03;96.84;100257.02;1730150;81;21708;-84
2023/01/19 07:20:48;;;;;;;33.05;15.20;;;;;;;7.11;96.31;100243.52;1717837;82;21198;-83
2023/01/19 07:23:59;;;;;;;28.10;15.40;;;;;;;7.12;96.11;100249.30;1736331;82;21173;-84
2023/01/19 07:27:05;;;;;;;25.32;14.28;;;;;;;7.17;95.49;100246.45;1738950;82;21227;-84
2023/01/19 07:30:14;;;;;;;31.62;14.75;;;;;;;7.26;94.95;100253.33;1738508;81;24581;-79
2023/01/19 07:33:20;;;;;;;32.80;14.85;;;;;;;7.36;94.44;100263.11;1773473;79;21752;-79
2023/01/19 07:36:25;;;;;;;28.65;15.18;;;;;;;7.32;94.30;100250.83;1754306;81;21141;-80
2023/01/19 07:39:32;;;;;;;26.75;14.50;;;;;;;7.38;94.05;100243.39;1749244;80;21535;-80
2023/01/19 07:42:37;;;;;;;30.95;14.78;;;;;;;7.46;93.34;100260.30;1759034;80;21268;-80
2023/01/19 07:45:36;;;;;;;25.37;14.80;;;;;;;7.50;93.20;100256.77;1756845;80;21170;-80
2023/01/19 07:48:43;;;;;;;26.37;15.13;;;;;;;7.59;93.29;100254.45;1765655;80;21181;-79
2023/01/19 07:51:48;;;;;;;31.45;15.98;;;;;;;7.62;92.99;100246.84;1767069;80;21169;-80
2023/01/19 07:54:54;;;;;;;28.67;15.10;;;;;;;7.74;92.63;100257.45;1764196;80;21196;-80
2023/01/19 07:58:00;;;;;;;26.42;14.40;;;;;;;7.84;92.51;100260.92;1762282;80;21180;-79
2023/01/19 08:01:06;;;;;;;28.45;14.43;;;;;;;7.90;92.46;100261.64;1771412;79;21125;-80
2023/01/19 08:04:12;;;;;;;24.80;15.35;;;;;;;7.98;92.34;100266.30;1747902;80;21196;-79
2023/01/19 08:07:17;;;;;;;25.17;13.68;;;;;;;8.07;91.42;100258.02;1741417;81;21775;-79
2023/01/19 08:10:24;;;;;;;26.87;14.53;;;;;;;8.08;91.16;100265.67;1763056;80;21183;-79
2023/01/19 08:13:31;;;;;;;25.37;13.35;;;;;;;8.13;90.61;100261.95;1739371;81;21246;-79
2023/01/19 08:16:37;;;;;;;24.30;14.30;;;;;;;8.20;90.17;100277.50;1745566;81;21313;-79
2023/01/19 08:19:44;;;;;;;22.35;13.32;;;;;;;8.30;89.34;100276.02;1758219;79;21584;-79
2023/01/19 08:22:49;;;;;;;26.10;13.85;;;;;;;8.26;89.19;100281.95;1727522;82;21196;-80
2023/01/19 08:25:50;;;;;;;24.98;13.90;;;;;;;8.27;89.05;100283.14;1726146;82;21739;-80
2023/01/19 08:28:42;;;;;;;25.43;13.08;;;;;;;8.30;88.59;100281.47;1740972;81;21154;-80
2023/01/19 08:31:51;;;;;;;24.25;13.53;;;;;;;8.27;88.69;100288.59;1734554;80;21791;-80
2023/01/19 08:34:57;;;;;;;26.17;13.65;;;;;;;8.22;88.96;100280.56;1736721;82;21161;-79
2023/01/19 08:38:03;;;;;;;23.62;12.75;;;;;;;8.16;88.94;100272.53;1744125;80;21209;-80
2023/01/19 08:41:09;;;;;;;27.32;13.08;;;;;;;8.19;87.97;100274.95;1719552;81;21171;-78
2023/01/19 08:44:15;;;;;;;20.72;12.37;;;;;;;8.16;88.21;100277.47;1741521;80;21167;-79
2023/01/19 08:47:20;;;;;;;26.02;13.38;;;;;;;8.25;87.30;100278.38;1747765;80;21179;-79
2023/01/19 08:50:25;;;;;;;26.10;12.75;;;;;;;8.22;87.29;100281.42;1751535;80;21138;-79
2023/01/19 08:53:30;;;;;;;24.40;13.58;;;;;;;8.26;87.19;100275.14;1746884;81;21740;-79
2023/01/19 08:56:35;;;;;;;25.32;13.20;;;;;;;8.27;87.80;100283.14;1743435;80;21763;-79
2023/01/19 08:59:40;;;;;;;24.30;13.65;;;;;;;8.34;87.61;100277.41;1750926;80;21471;-79
2023/01/19 09:02:46;;;;;;;25.32;14.58;;;;;;;8.32;87.94;100273.97;1756892;80;21170;-79
2023/01/19 09:05:52;;;;;;;22.75;11.85;;;;;;;8.45;87.63;100270.84;1756464;80;21220;-79
2023/01/19 09:08:58;;;;;;;26.90;13.95;;;;;;;8.49;87.88;100273.59;1752103;80;21805;-79
2023/01/19 09:12:04;;;;;;;24.25;13.22;;;;;;;8.64;87.20;100275.17;1751843;80;21181;-80
2023/01/19 09:15:09;;;;;;;26.70;13.22;;;;;;;8.64;87.79;100262.39;1756277;80;21149;-80
2023/01/19 09:18:17;;;;;;;27.45;13.35;;;;;;;8.75;87.74;100263.10;1752389;80;21176;-80
2023/01/19 09:21:23;;;;;;;27.98;13.55;;;;;;;8.86;87.60;100265.03;1761717;80;21692;-80
2023/01/19 09:24:28;;;;;;;26.55;13.22;;;;;;;8.93;87.70;100258.38;1763629;80;21226;-80
2023/01/19 09:27:34;;;;;;;28.50;12.95;;;;;;;9.12;87.79;100262.17;1760059;80;21249;-80
2023/01/19 09:30:39;;;;;;;23.55;13.08;;;;;;;9.17;88.16;100261.66;1751722;80;21166;-80
2023/01/19 09:33:45;;;;;;;22.15;12.93;;;;;;;9.24;88.50;100261.86;1757802;80;21245;-80
2023/01/19 09:36:50;;;;;;;22.75;12.63;;;;;;;9.39;87.86;100254.70;1763801;80;21166;-80
2023/01/19 09:39:56;;;;;;;23.30;12.68;;;;;;;9.54;87.88;100260.33;1762441;80;21546;-80
2023/01/19 09:43:21;;;;;;;22.65;12.50;;;;;;;9.52;87.87;100252.32;1758779;80;21191;-80
2023/01/19 09:46:43;;;;;;;28.15;13.28;;;;;;;9.63;87.47;100242.92;1733735;80;21151;-80
2023/01/19 09:49:53;;;;;;;30.90;12.33;;;;;;;9.93;86.53;100240.84;1757189;79;21698;-85
2023/01/19 09:53:10;;;;;;;21.10;11.45;;;;;;;10.02;85.23;100246.27;1758939;80;21221;-84
2023/01/19 09:56:19;;;;;;;24.32;12.58;;;;;;;10.13;85.29;100238.57;1760071;79;21466;-85
2023/01/19 09:59:33;;;;;;;18.92;10.63;;;;;;;10.27;85.04;100238.39;1761788;79;21719;-86
2023/01/19 10:03:01;;;;;;;20.05;11.12;;;;;;;10.24;85.43;100248.30;1766242;80;21179;-84
2023/01/19 10:06:09;;;;;;;23.87;11.20;;;;;;;10.36;84.45;100243.32;1769025;80;21186;-85
2023/01/19 10:09:22;;;;;;;18.05;9.73;;;;;;;10.54;83.60;100228.01;1790037;79;21901;-85
2023/01/19 10:13:01;;;;;;;22.45;11.90;;;;;;;10.60;83.27;100234.16;1750591;80;21167;-80
2023/01/19 10:16:49;;;;;;;20.17;9.45;;;;;;;10.44;84.22;100230.95;1750551;80;21191;-80
2023/01/19 10:19:59;;;;;;;18.02;10.65;;;;;;;10.13;85.79;100229.52;1767333;80;21148;-80
2023/01/19 10:22:58;;;;;;;25.95;10.43;;;;;;;10.21;85.86;100222.67;1749415;80;21180;-80
2023/01/19 10:26:20;;;;;;;22.67;10.20;;;;;;;10.41;85.03;100223.98;1759516;80;21317;-85
2023/01/19 10:29:42;;;;;;;21.65;10.08;;;;;;;10.49;84.73;100228.05;1750942;80;21237;-86
2023/01/19 10:32:48;;;;;;;21.45;9.83;;;;;;;10.53;84.46;100222.21;1757076;80;21516;-85
2023/01/19 10:35:54;;;;;;;15.98;9.45;;;;;;;10.65;83.57;100224.90;1761679;80;21195;-84
2023/01/19 10:39:00;;;;;;;21.15;9.80;;;;;;;10.71;82.56;100235.11;1758934;80;21687;-84
2023/01/19 10:42:06;;;;;;;21.35;9.55;;;;;;;10.63;82.91;100234.66;1759240;81;21234;-85
2023/01/19 10:45:16;;;;;;;15.03;9.55;;;;;;;10.61;83.06;100224.91;1760899;81;21510;-85
2023/01/19 10:48:14;;;;;;;17.17;9.85;;;;;;;10.62;83.09;100232.08;1760254;81;21760;-84
2023/01/19 10:51:19;;;;;;;20.05;9.58;;;;;;;10.59;83.86;100231.94;1752760;80;21175;-85
2023/01/19 10:54:24;;;;;;;17.37;10.40;;;;;;;10.64;83.30;100228.67;1754798;80;21171;-84
2023/01/19 10:57:37;;;;;;;22.20;10.48;;;;;;;10.81;82.52;100216.59;1750882;81;21524;-85
2023/01/19 11:00:47;;;;;;;24.70;12.20;;;;;;;10.81;82.07;100209.75;1750418;81;21165;-84
2023/01/19 11:03:52;;;;;;;24.67;10.43;;;;;;;10.51;82.61;100207.88;1758663;81;21148;-79
2023/01/19 11:06:59;;;;;;;20.48;10.20;;;;;;;10.49;83.22;100213.50;1757110;80;21195;-80
2023/01/19 11:10:29;;;;;;;16.23;9.60;;;;;;;10.58;82.82;100211.06;1751648;80;21163;-86
2023/01/19 11:13:32;;;;;;;;;;;;;;;10.61;82.65;100205.25;1742677;81;21203;-80
2023/01/19 11:16:38;;;;;;;20.00;10.32;;;;;;;10.58;83.21;100205.59;1763699;81;20227;-80
2023/01/19 11:19:45;;;;;;;16.30;8.85;;;;;;;10.63;82.34;100206.42;1735343;81;21227;-80
2023/01/19 11:22:51;;;;;;;17.05;9.13;;;;;;;10.84;82.36;100203.92;1741768;81;21579;-80
2023/01/19 11:26:00;;;;;;;15.75;9.90;;;;;;;10.78;82.02;100195.08;1754786;80;21165;-80
2023/01/19 11:29:07;;;;;;;22.55;10.30;;;;;;;10.74;81.35;100203.30;1746812;81;21763;-80
2023/01/19 11:32:29;;;;;;;15.75;9.53;;;;;;;10.78;81.22;100203.28;1744502;80;21227;-78
2023/01/19 11:35:46;;;;;;;22.75;10.32;;;;;;;10.68;81.48;100202.15;1759045;79;21238;-86
2023/01/19 11:38:52;;;;;;;22.80;11.18;;;;;;;10.70;81.73;100200.59;1758266;80;21188;-81
2023/01/19 11:42:11;;;;;;;20.82;11.48;;;;;;;10.67;81.79;100207.78;1789812;80;22133;-84
2023/01/19 11:45:19;;;;;;;17.62;9.28;;;;;;;10.61;81.60;100208.50;1784076;80;21256;-85
2023/01/19 11:48:46;;;;;;;21.77;10.08;;;;;;;10.60;81.76;100218.59;1747445;82;21187;-85
2023/01/19 11:52:14;;;;;;;16.65;9.95;;;;;;;10.56;82.01;100211.77;1759160;80;21780;-80
2023/01/19 11:55:57;;;;;;;19.00;9.65;;;;;;;10.98;80.28;100207.25;1764081;80;21171;-85
2023/01/19 11:59:03;;;;;;;25.15;9.98;;;;;;;10.79;80.84;100202.77;1741471;80;21184;-85
2023/01/19 12:02:09;;;;;;;19.12;10.48;;;;;;;10.72;80.83;100195.77;1746207;81;21710;-80
2023/01/19 12:05:18;;;;;;;14.83;9.03;;;;;;;10.74;80.47;100195.95;1717422;81;21241;-85
2023/01/19 12:08:31;;;;;;;18.92;10.43;;;;;;;10.73;80.31;100193.41;1731792;82;21149;-80
2023/01/19 12:11:48;;;;;;;21.85;9.80;;;;;;;10.82;79.33;100190.95;1745215;81;21255;-80
2023/01/19 12:15:21;;;;;;;20.60;11.15;;;;;;;10.66;79.52;100193.25;1733839;82;22096;-80
2023/01/19 12:18:19;;;;;;;17.98;9.63;;;;;;;10.58;79.54;100197.91;1741624;80;21533;-84
2023/01/19 12:21:25;;;;;;;18.10;10.70;;;;;;;10.61;79.69;100204.40;1740484;80;21226;-86
2023/01/19 12:24:40;;;;;;;19.65;10.28;;;;;;;10.54;79.78;100194.70;1778701;80;21192;-86
2023/01/19 12:27:50;;;;;;;15.90;9.15;;;;;;;10.34;80.44;100207.08;1787353;80;21243;-85
2023/01/19 12:30:55;;;;;;;20.25;10.30;;;;;;;10.51;80.15;100198.30;1769765;79;21173;-80
2023/01/19 12:34:01;;;;;;;18.45;10.05;;;;;;;10.65;78.96;100209.85;1782191;79;21644;-80
2023/01/19 12:37:10;;;;;;;18.40;10.05;;;;;;;10.48;79.23;100212.66;1808415;79;21184;-80
2023/01/19 12:40:34;;;;;;;15.83;10.28;;;;;;;10.49;79.30;100218.48;1741730;81;21191;-85
2023/01/19 12:43:40;;;;;;;20.20;9.53;;;;;;;10.52;79.04;100204.95;1743536;81;21203;-85
2023/01/19 12:47:05;;;;;;;19.60;11.18;;;;;;;10.38;79.11;100214.75;1746777;81;21210;-81
2023/01/19 12:50:08;;;;;;;24.77;10.53;;;;;;;10.34;78.99;100215.28;1782212;80;21181;-86
2023/01/19 12:53:17;;;;;;;20.55;11.08;;;;;;;10.31;78.77;100220.61;1782993;80;21184;-80
2023/01/19 12:56:23;;;;;;;24.20;11.05;;;;;;;10.18;79.15;100219.76;1752509;80;21891;-82
2023/01/19 12:59:25;;;;;;;22.27;11.45;;;;;;;10.15;79.36;100225.56;1771790;80;21586;-81
2023/01/19 13:02:35;;;;;;;21.60;11.85;;;;;;;10.15;79.34;100227.45;1771498;80;21835;-81
2023/01/19 13:05:51;;;;;;;20.37;10.50;;;;;;;10.33;78.94;100214.44;1765457;80;21176;-81
2023/01/19 13:09:05;;;;;;;22.90;10.78;;;;;;;10.25;79.03;100218.56;1750311;79;21554;-81
2023/01/19 13:12:32;;;;;;;15.98;9.88;;;;;;;10.18;79.36;100208.83;1760197;80;21156;-79
2023/01/19 13:15:43;;;;;;;21.90;10.50;;;;;;;10.16;79.41;100217.73;1753482;81;21206;-85
2023/01/19 13:18:49;;;;;;;20.57;10.53;;;;;;;10.03;79.61;100222.04;1744614;81;21160;-85
2023/01/19 13:21:55;;;;;;;23.22;11.03;;;;;;;10.06;79.80;100231.23;1794510;79;21186;-81
2023/01/19 13:25:19;;;;;;;24.27;11.08;;;;;;;9.97;79.90;100214.00;1772820;79;21151;-85
2023/01/19 13:28:26;;;;;;;25.65;11.33;;;;;;;9.73;80.89;100244.95;1744010;81;21708;-81
2023/01/19 13:31:32;;;;;;;21.30;11.38;;;;;;;9.67;81.43;100236.09;1750285;81;21159;-81
2023/01/19 13:34:51;;;;;;;20.05;10.20;;;;;;;9.68;81.31;100242.73;1759363;81;21693;-81
2023/01/19 13:37:56;;;;;;;18.05;10.35;;;;;;;9.70;81.35;100245.32;1764688;81;21795;-81
2023/01/19 13:41:02;;;;;;;24.90;10.55;;;;;;;9.60;81.60;100251.48;1705230;84;21782;-81
2023/01/19 13:44:16;;;;;;;20.52;11.45;;;;;;;9.60;81.77;100243.28;1749331;81;21154;-81
2023/01/19 13:47:42;;;;;;;22.98;11.03;;;;;;;9.78;81.14;100233.00;1752133;81;21162;-85
2023/01/19 13:50:44;;;;;;;19.05;11.30;;;;;;;9.85;80.87;100238.63;1751981;81;21661;-85
2023/01/19 13:53:36;;;;;;;20.72;11.38;;;;;;;9.74;81.20;100248.05;1751301;81;21167;-81
2023/01/19 13:56:44;;;;;;;19.15;10.98;;;;;;;9.68;81.40;100243.25;1752846;81;21191;-80
2023/01/19 13:59:49;;;;;;;25.37;11.80;;;;;;;9.59;81.75;100252.48;1684069;84;21156;-85
2023/01/19 14:03:08;;;;;;;22.95;12.50;;;;;;;9.51;82.29;100243.80;1682766;84;21254;-84
2023/01/19 14:06:07;;;;;;;21.55;11.33;;;;;;;9.42;82.68;100248.39;1678292;85;21756;-81
2023/01/19 14:09:17;;;;;;;20.57;12.30;;;;;;;9.36;83.18;100250.45;1708498;82;21269;-85
2023/01/19 14:12:24;;;;;;;20.48;11.85;;;;;;;9.40;83.20;100260.50;1710051;82;21203;-85
2023/01/19 14:15:30;;;;;;;20.60;13.48;;;;;;;9.29;83.77;100256.23;1709364;84;21168;-85
2023/01/19 14:18:32;;;;;;;28.65;12.73;;;;;;;9.19;84.12;100262.37;1709481;84;21199;-86
2023/01/19 14:21:46;;;;;;;27.30;14.10;;;;;;;9.18;83.94;100245.66;1708770;84;21208;-81
2023/01/19 14:24:52;;;;;;;24.20;13.55;;;;;;;9.06;84.65;100258.76;1736991;82;21195;-81
2023/01/19 14:28:01;;;;;;;20.68;11.88;;;;;;;9.02;85.03;100261.98;1781897;80;21192;-80